Printer image icon. Send To Printer
           

                RAOB DATA MANUAL QUALITY CONTROL (QC) REPORT
                                  MEXICAN
                       From 20150601 through 20150630

 ___DATE___ HOUR REASN DETAILS...

76256/GYM
   20150604  12Z 10158 10158; Flight equip problems.
   20150607  12Z 10158 10158; Flight equip problem..
   20150608  12Z 10158 10158.
   20150611  12Z 10158 10158
   20150612  12Z 10158 Flight equipment failure...10158
   20150615  12Z 10158 10158
   20150616  12Z 10158 10158
   20150619  12Z 10158 10158.
   20150620  12Z 10158 10158.
   20150623  12Z 10158 10158...Flight equipment failures
   20150624  12Z 10158 10158...Flight equipment failure
   20150627  12Z 10158 10158
   20150628  12Z 10158 10158

13 records found

76405/LAP
   20150606  12Z 10142 10142; Ground equip problems..
   20150630  12Z DELET Purge all hts/temps/humidity high and warm.

2 records found

76458/MZT
   20150601  00Z 10158 10158
   20150602  00Z 10158 10158.
   20150603  00Z 10158 10158.
   20150603  12Z 10142 10142
   20150604  00Z 10158 10158.
   20150605  00Z 10158 10158...flight equipment failure
   20150606  00Z 10158 10158...flight equipment failure
   20150607  00Z 10158 10158...Flight equipment failure
   20150608  00Z 10158 10158...Flight equipment failure
   20150609  00Z 10158 10158
   20150610  00Z 10158 10158
   20150611  00Z 10158 10158
   20150612  00Z 10158 10158.
   20150613  00Z 10158 10158.
   20150614  00Z 10158 10158; Flight equip problem.
   20150615  00Z 10158 10158; flight equip problems.
   20150616  00Z 10158 10158...Flight equipment failure
   20150617  00Z 10158 10158
   20150618  00Z 10158 10158
   20150619  00Z 10158 10158.
   20150620  00Z 10158 10158
   20150621  00Z 10158 10158
   20150622  00Z 10158 Flight equipment failure...10158
   20150623  00Z 10158 10158; Flight equip problems..
   20150624  00Z 10158 10158; Flight equip problems.
   20150625  00Z 10158 10158; Flight equip problems..
   20150626  00Z 10158 10158...Flight equipment failure
   20150627  00Z 10158 10158...Flight equipment failure
   20150628  00Z 10158 10158.
   20150629  00Z 10158 10158.
   20150630  00Z 10158 10158

31 records found

76526/ZAC
   20150601  12Z DELET Purged all temps...too warm
   20150603  12Z DELET Purged all temps...too warm
   20150604  12Z DELET Purge hts/temps/humidity 1000mb up high then low 
                       and warm then cold.
   20150606  12Z DELET Purge hts/temps/humidity 1000mb up high then low 
                       and very warm..
   20150613  12Z DELET Purged all temps...too cold
   20150616  12Z DELET Purged all hgts/temps
   20150617  12Z DELET Purged all hgts/temps
   20150627  12Z DELET Purged all hgts/temps
   20150628  12Z DELET Purged all hgts/temps
   20150630  12Z DELET Purge hts/temps/humidity; 1000mb up high warm.

10 records found

76612/GDL
   20150613  12Z 10142 10142

1 record found

76644/MID
   20150605  12Z 10158 10158; Flight equip problems.
   20150606  12Z 10158 10158; Flight equip problems..
   20150608  12Z 10158 10158.
   20150609  12Z 10158 10158.

4 records found

76654/MZL
   20150603  00Z 10158 10158.
   20150604  00Z 10158 10158.
   20150605  00Z 10158 10158...flight equipment failure
   20150607  00Z 10158 10158...Flight equipment failure
   20150607  12Z 10144 10144; Power Failure..
   20150608  00Z 10144 10144...Power failure
   20150609  00Z 10144 10144
   20150610  00Z 10144 10144
   20150610  12Z 10156 10156
   20150611  00Z 10144 10144
   20150612  00Z 10158 10158.
   20150614  00Z 10158 10158; Flight equip problem.
   20150616  00Z 10158 10158...Flight equipment failure
   20150617  00Z 10158 10158
   20150618  00Z 10158 10158
   20150619  00Z 10158 10158.
   20150621  00Z 10158 10158
   20150623  00Z 10158 10158; Flight equip problems..
   20150624  00Z 10158 10158; Flight equip problems.
   20150624  12Z DELET Purged all hgts/temps...high/warm
   20150625  00Z 10158 10158; Flight equip problems..
   20150626  00Z 10158 10158...Flight equipment failure
   20150627  00Z 10158 10158...Flight equipment failure
   20150628  00Z 10158 10158.
   20150629  00Z 10158 10158.
   20150630  00Z 10158 10158

26 records found

76679/MEX
   20150601  00Z DELET Purged all hgts/temps
   20150607  00Z DELET Purged temps/moisture 771-769 mb, 325-250 mb, 
                       201-199 mb...super-adiabatic lapse rate
   20150610  00Z DELET Purged all hgts/temps
   20150617  12Z DELET Purged all hgts/temps for GFS
   20150618  00Z DELET Purged temps/moisture 774-749 mb, 357-150 mb...
                       super-adiabatic lapse rate
   20150620  00Z DELET Purged all hgts/temps
   20150623  00Z DELET Purge hts 500mb up.. High
   20150627  00Z DELET Purged all hgts/temps...baseline error
                 BASEL
   20150630  00Z DELET Purged all temps/moisture...too warm

9 records found

76692/HYY
   20150601  00Z 10142 10142
   20150607  00Z SHORT Short to 449 mb
   20150627  12Z SHORT Short to 577mb

3 records found

76805/ACA
   20150601  12Z 10158 Flight equipment failure...10158
   20150602  12Z 10158 10158
   20150614  12Z 10145 10145
   20150615  12Z 10158 10158
   20150622  12Z 10158 10158...Flight equipment failure
   20150623  12Z 10158 10158...Flight equipment failures
   20150624  12Z 10158 10158...Flight equipment failure
   20150625  12Z 10158 10158...Flight equipment failure.
   20150626  12Z 10158 10158...Flight equipment failure.

9 records found



SELECTED STATIONS WITH NO SDM QC:
  76225/CUU  76394/MTY  76595/CUN  76743/VHA  76903/TAP




This and related reports are available on the Web at . . .
http://www.nco.ncep.noaa.gov/sib/qap/raobqc/